createdAt,value
2022-11-24T00:00:34.480Z,99435.94
2022-11-24T00:03:37.371Z,99451.91
2022-11-24T00:06:39.952Z,99449.25
2022-11-24T00:09:42.758Z,99449.25
2022-11-24T00:12:45.260Z,99452.78
2022-11-24T00:15:48.018Z,99446.56
2022-11-24T00:18:52.542Z,99449.25
2022-11-24T00:21:55.428Z,99459.00
2022-11-24T00:24:57.901Z,99457.22
2022-11-24T00:28:00.752Z,99470.53
2022-11-24T00:31:04.261Z,99470.53
2022-11-24T00:34:10.580Z,99483.84
2022-11-24T00:37:13.155Z,99490.06
2022-11-24T00:40:16.097Z,99498.91
2022-11-24T00:43:18.983Z,99498.03
2022-11-24T00:46:22.544Z,99502.47
2022-11-24T00:49:25.123Z,99504.25
2022-11-24T00:52:27.885Z,99512.22
2022-11-24T00:55:30.429Z,99514.00
2022-11-24T00:58:33.587Z,99520.19
2022-11-24T01:01:36.398Z,99524.62
2022-11-24T01:04:39.335Z,99537.03
2022-11-24T01:07:41.985Z,99535.25
2022-11-24T01:10:45.210Z,99531.69
2022-11-24T01:13:51.365Z,99529.03
2022-11-24T01:16:54.889Z,99524.59
2022-11-24T01:19:57.459Z,99532.59
2022-11-24T01:23:00.258Z,99537.03
2022-11-24T01:26:07.569Z,99534.38
2022-11-24T01:29:11.080Z,99543.25
2022-11-24T01:32:13.914Z,99535.25
2022-11-24T01:35:16.762Z,99539.69
2022-11-24T01:38:19.323Z,99535.25
2022-11-24T01:41:24.648Z,99547.66
2022-11-24T01:44:29.406Z,99540.56
2022-11-24T01:47:35.616Z,99544.13
2022-11-24T01:50:38.319Z,99545.00
2022-11-24T01:53:44.576Z,99553.00
2022-11-24T01:56:52.937Z,99560.09
2022-11-24T01:59:59.550Z,99557.44
2022-11-24T02:03:02.525Z,99554.78
2022-11-24T02:06:12.039Z,99562.78
2022-11-24T02:09:31.492Z,99539.69
2022-11-24T02:12:34.310Z,99570.78
2022-11-24T02:15:36.858Z,99565.44
2022-11-24T02:18:40.258Z,99566.31
2022-11-24T02:21:42.969Z,99543.19
2022-11-24T02:25:02.861Z,99556.53
2022-11-24T02:28:12.481Z,99551.22
2022-11-24T02:31:15.309Z,99553.88
2022-11-24T02:34:17.870Z,99543.22
2022-11-24T02:37:20.712Z,99538.78
2022-11-24T02:40:25.794Z,99537.88
2022-11-24T02:43:31.016Z,99544.09
2022-11-24T02:46:33.532Z,99540.56
2022-11-24T02:49:37.065Z,99537.88
2022-11-24T02:52:39.559Z,99543.22
2022-11-24T02:55:42.461Z,99540.56
2022-11-24T02:58:44.982Z,99540.56
2022-11-24T03:01:47.916Z,99544.97
2022-11-24T03:04:50.659Z,99543.22
2022-11-24T03:07:53.490Z,99538.78
2022-11-24T03:10:56.081Z,99543.22
2022-11-24T03:13:59.044Z,99548.56
2022-11-24T03:17:01.938Z,99550.34
2022-11-24T03:20:05.489Z,99556.53
2022-11-24T03:23:08.076Z,99564.50
2022-11-24T03:26:13.223Z,99559.25
2022-11-24T03:29:15.822Z,99562.75
2022-11-24T03:32:19.024Z,99568.06
2022-11-24T03:35:22.176Z,99563.69
2022-11-24T03:38:25.310Z,99575.19
2022-11-24T03:41:27.947Z,99572.56
2022-11-24T03:44:31.056Z,99574.31
2022-11-24T03:47:33.750Z,99577.88
2022-11-24T03:50:36.552Z,99584.94
2022-11-24T03:53:39.437Z,99592.03
2022-11-24T03:56:42.858Z,99596.44
2022-11-24T03:59:45.336Z,99588.47
2022-11-24T04:02:48.604Z,99593.81
2022-11-24T04:05:51.706Z,99594.72
2022-11-24T04:08:54.664Z,99600.06
2022-11-24T04:12:15.924Z,99600.09
2022-11-24T04:15:19.315Z,99601.00
2022-11-24T04:18:22.464Z,99596.56
2022-11-24T04:21:24.980Z,99604.56
2022-11-24T04:24:27.755Z,99608.09
2022-11-24T04:27:30.281Z,99614.31
2022-11-24T04:30:33.080Z,99612.53
2022-11-24T04:33:35.769Z,99627.63
2022-11-24T04:36:41.059Z,99622.28
2022-11-24T04:39:44.138Z,99636.50
2022-11-24T04:42:58.074Z,99626.75
2022-11-24T04:46:01.726Z,99640.06
2022-11-24T04:49:04.492Z,99645.38
2022-11-24T04:52:07.076Z,99651.59
2022-11-24T04:55:10.026Z,99659.59
2022-11-24T04:58:13.193Z,99663.16
2022-11-24T05:01:16.164Z,99656.03
2022-11-24T05:04:20.473Z,99663.13
2022-11-24T05:07:23.296Z,99661.41
2022-11-24T05:10:35.164Z,99657.84
2022-11-24T05:13:37.932Z,99669.38
2022-11-24T05:16:40.871Z,99678.28
2022-11-24T05:19:43.655Z,99679.16
2022-11-24T05:22:46.241Z,99680.06
2022-11-24T05:25:49.009Z,99691.62
2022-11-24T05:28:51.514Z,99692.53
2022-11-24T05:31:54.291Z,99681.87
2022-11-24T05:34:56.857Z,99683.66
2022-11-24T05:37:59.670Z,99682.78
2022-11-24T05:41:05.712Z,99686.31
2022-11-24T05:44:08.505Z,99692.53
2022-11-24T05:47:10.971Z,99703.19
2022-11-24T05:50:15.416Z,99697.00
2022-11-24T05:53:17.887Z,99700.56
2022-11-24T05:56:20.588Z,99705.84
2022-11-24T05:59:23.078Z,99707.59
2022-11-24T06:02:26.207Z,99714.72
2022-11-24T06:05:29.602Z,99703.16
2022-11-24T06:08:32.674Z,99725.41
2022-11-24T06:11:35.572Z,99727.19
2022-11-24T06:14:38.341Z,99744.94
2022-11-24T06:17:41.315Z,99746.69
2022-11-24T06:20:53.145Z,99754.69
2022-11-24T06:24:06.221Z,99736.84
2022-11-24T06:27:08.748Z,99760.88
2022-11-24T06:30:13.006Z,99777.75
2022-11-24T06:33:15.543Z,99781.28
2022-11-24T06:36:18.346Z,99790.19
2022-11-24T06:39:20.848Z,99804.41
2022-11-24T06:42:23.785Z,99809.72
2022-11-24T06:45:26.491Z,99810.66
2022-11-24T06:48:30.055Z,99815.12
2022-11-24T06:51:32.752Z,99815.97
2022-11-24T06:54:35.965Z,99817.75
2022-11-24T06:57:38.795Z,99822.22
2022-11-24T07:00:41.689Z,99828.44
2022-11-24T07:03:45.017Z,99832.00
2022-11-24T07:06:47.802Z,99839.16
2022-11-24T07:09:50.410Z,99837.38
2022-11-24T07:12:53.263Z,99858.69
2022-11-24T07:15:56.066Z,99862.25
2022-11-24T07:18:59.519Z,99861.38
2022-11-24T07:22:02.278Z,99855.22
2022-11-24T07:25:07.589Z,99859.69
2022-11-24T07:28:10.423Z,99862.34
2022-11-24T07:31:15.867Z,99859.66
2022-11-24T07:34:18.565Z,99867.69
2022-11-24T07:37:24.511Z,99862.34
2022-11-24T07:40:30.752Z,99873.03
2022-11-24T07:43:34.719Z,99871.28
2022-11-24T07:46:39.679Z,99869.53
2022-11-24T07:49:44.701Z,99863.25
2022-11-24T07:52:47.331Z,99865.09
2022-11-24T07:56:00.203Z,99875.75
2022-11-24T07:59:03.342Z,99881.09
2022-11-24T08:02:06.694Z,99873.97
2022-11-24T08:05:09.781Z,99883.78
2022-11-24T08:08:12.486Z,99883.78
2022-11-24T08:11:17.188Z,99890.00
2022-11-24T08:14:19.812Z,99894.44
2022-11-24T08:17:23.153Z,99890.91
2022-11-24T08:20:26.771Z,99910.44
2022-11-24T08:23:30.644Z,99890.88
2022-11-24T08:26:34.677Z,99898.00
2022-11-24T08:29:38.108Z,99906.00
2022-11-24T08:32:40.677Z,99902.44
2022-11-24T08:35:43.541Z,99899.81
2022-11-24T08:38:46.950Z,99906.00
2022-11-24T08:41:49.751Z,99900.72
2022-11-24T08:44:58.916Z,99910.50
2022-11-24T08:48:02.240Z,99917.63
2022-11-24T08:51:15.856Z,99914.06
2022-11-24T08:54:18.940Z,99909.63
2022-11-24T08:57:23.802Z,99918.53
2022-11-24T09:00:28.806Z,99920.31
2022-11-24T09:03:31.851Z,99924.75
2022-11-24T09:06:34.878Z,99918.53
2022-11-24T09:09:37.574Z,99915.84
2022-11-24T09:12:40.608Z,99930.09
2022-11-24T09:15:43.207Z,99930.06
2022-11-24T09:18:47.091Z,99933.63
2022-11-24T09:21:50.149Z,99925.63
2022-11-24T09:24:53.037Z,99921.16
2022-11-24T09:27:56.635Z,99920.28
2022-11-24T09:31:06.127Z,99925.63
2022-11-24T09:34:13.079Z,99927.38
2022-11-24T09:37:15.817Z,99928.28
2022-11-24T09:40:18.411Z,99928.28
2022-11-24T09:43:37.701Z,99937.19
2022-11-24T09:46:57.200Z,99942.53
2022-11-24T09:50:06.609Z,99936.31
2022-11-24T09:53:12.640Z,99932.78
2022-11-24T09:56:15.393Z,99928.31
2022-11-24T09:59:24.824Z,99932.78
2022-11-24T10:02:27.907Z,99937.22
2022-11-24T10:05:34.765Z,99924.72
2022-11-24T10:09:15.384Z,99931.84
2022-11-24T10:12:35.711Z,99930.97
2022-11-24T10:15:45.331Z,99942.56
2022-11-24T10:18:59.258Z,99911.41
2022-11-24T10:22:14.209Z,99912.28
2022-11-24T10:25:26.329Z,99929.22
2022-11-24T10:28:55.720Z,99923.88
2022-11-24T10:31:58.589Z,99932.78
2022-11-24T10:35:17.443Z,99931.87
2022-11-24T10:38:20.281Z,99926.53
2022-11-24T10:41:32.203Z,99927.41
2022-11-24T10:44:35.203Z,99935.41
2022-11-24T10:47:38.432Z,99937.19
2022-11-24T10:50:41.679Z,99938.09
2022-11-24T10:53:46.197Z,99939.91
2022-11-24T10:56:52.022Z,99944.31
2022-11-24T10:59:55.671Z,99945.16
2022-11-24T11:03:33.932Z,99936.22
2022-11-24T11:06:38.162Z,99938.00
2022-11-24T11:09:41.123Z,99935.31
2022-11-24T11:12:45.003Z,99939.75
2022-11-24T11:15:48.278Z,99926.38
2022-11-24T11:18:51.042Z,99926.34
2022-11-24T11:22:02.610Z,99929.91
2022-11-24T11:25:08.075Z,99924.56
2022-11-24T11:28:29.882Z,99922.78
2022-11-24T11:31:33.209Z,99919.22
2022-11-24T11:34:37.002Z,99933.50
2022-11-24T11:37:40.074Z,99934.41
2022-11-24T11:40:44.022Z,99922.81
2022-11-24T11:43:50.443Z,99929.94
2022-11-24T11:46:54.609Z,99942.44
2022-11-24T11:49:57.881Z,99931.72
2022-11-24T11:53:07.539Z,99934.41
2022-11-24T11:56:10.152Z,99934.41
2022-11-24T11:59:13.076Z,99932.63
2022-11-24T12:02:51.572Z,99941.56
2022-11-24T12:05:59.619Z,99948.69
2022-11-24T12:09:20.727Z,99955.81
2022-11-24T12:13:01.898Z,99951.34
2022-11-24T12:16:15.277Z,99946.09
2022-11-24T12:19:27.468Z,99958.50
2022-11-24T12:22:59.616Z,99946.91
2022-11-24T12:26:05.474Z,99943.41
2022-11-24T12:29:26.293Z,99940.69
2022-11-24T12:32:47.528Z,99952.34
2022-11-24T12:35:54.524Z,99951.44
2022-11-24T12:39:18.666Z,99947.87
2022-11-24T12:42:42.959Z,99953.22
2022-11-24T12:46:18.611Z,99957.69
2022-11-24T12:49:33.458Z,99962.16
2022-11-24T12:53:04.306Z,99962.13
2022-11-24T12:56:10.908Z,99955.91
2022-11-24T12:59:39.410Z,99942.56
2022-11-24T13:03:00.914Z,99954.13
2022-11-24T13:06:09.820Z,99955.87
2022-11-24T13:09:13.829Z,99950.50
2022-11-24T13:12:16.792Z,99957.63
2022-11-24T13:18:59.343Z,99973.66
2022-11-24T13:22:16.763Z,99967.41
2022-11-24T13:25:26.124Z,99968.28
2022-11-24T13:29:09.325Z,99974.53
2022-11-24T13:32:25.066Z,99971.00
2022-11-24T13:35:28.065Z,99959.41
2022-11-24T13:38:46.122Z,99964.81
2022-11-24T13:41:48.570Z,99971.03
2022-11-24T13:44:53.295Z,99977.28
2022-11-24T13:47:55.790Z,99975.50
2022-11-24T13:50:58.705Z,99974.62
2022-11-24T13:54:01.806Z,99983.53
2022-11-24T13:57:47.197Z,99958.56
2022-11-24T14:00:58.359Z,99990.69
2022-11-24T14:04:29.867Z,99983.56
2022-11-24T14:07:33.585Z,99986.22
2022-11-24T14:10:41.070Z,99992.44
2022-11-24T14:13:43.735Z,99990.66
2022-11-24T14:16:46.656Z,100002.22
2022-11-24T14:19:51.414Z,100005.81
2022-11-24T14:22:54.378Z,100008.47
2022-11-24T14:25:57.026Z,100001.34
2022-11-24T14:29:07.208Z,100004.00
2022-11-24T14:32:16.433Z,100000.44
2022-11-24T14:35:30.632Z,100004.88
2022-11-24T14:38:34.062Z,100004.88
2022-11-24T14:41:37.821Z,99995.97
2022-11-24T14:44:40.436Z,99998.66
2022-11-24T14:47:46.326Z,100008.44
2022-11-24T14:50:49.126Z,100004.88
2022-11-24T14:53:57.881Z,100011.97
2022-11-24T14:57:04.337Z,100007.53
2022-11-24T15:00:19.989Z,100020.88
2022-11-24T15:03:22.670Z,100018.16
2022-11-24T15:06:25.609Z,100028.84
2022-11-24T15:09:39.700Z,100020.78
2022-11-24T15:12:50.402Z,100027.03
2022-11-24T15:16:03.378Z,100021.69
2022-11-24T15:19:14.809Z,100027.91
2022-11-24T15:22:37.327Z,100031.44
2022-11-24T15:25:40.291Z,100029.69
2022-11-24T15:28:42.871Z,100031.44
2022-11-24T15:31:50.952Z,100027.88
2022-11-24T15:34:55.310Z,100045.62
2022-11-24T15:37:58.772Z,100031.38
2022-11-24T15:41:01.793Z,100045.62
2022-11-24T15:44:04.875Z,100042.03
2022-11-24T15:47:08.752Z,100051.81
2022-11-24T15:50:12.270Z,100060.72
2022-11-24T15:53:35.425Z,100056.31
2022-11-24T15:56:41.872Z,100058.09
2022-11-24T15:59:44.471Z,100069.62
2022-11-24T16:02:47.813Z,100067.81
2022-11-24T16:05:53.338Z,100069.59
2022-11-24T16:08:56.655Z,100078.47
2022-11-24T16:11:59.885Z,100079.31
2022-11-24T16:15:02.585Z,100089.06
2022-11-24T16:18:06.573Z,100096.12
2022-11-24T16:21:10.497Z,100106.75
2022-11-24T16:24:13.390Z,100103.16
2022-11-24T16:27:16.492Z,100105.81
2022-11-24T16:30:19.549Z,100111.97
2022-11-24T16:33:22.306Z,100121.69
2022-11-24T16:36:25.300Z,100127.88
2022-11-24T16:39:28.073Z,100126.91
2022-11-24T16:42:31.432Z,100125.06
2022-11-24T16:45:34.249Z,100131.25
2022-11-24T16:48:37.462Z,100135.69
2022-11-24T16:51:40.095Z,100140.94
2022-11-24T16:54:43.373Z,100140.91
2022-11-24T16:57:46.251Z,100132.91
2022-11-24T17:00:49.328Z,100141.81
2022-11-24T17:03:52.425Z,100154.22
2022-11-24T17:06:58.404Z,100155.03
2022-11-24T17:10:01.162Z,100159.41
2022-11-24T17:13:04.014Z,100160.25
2022-11-24T17:16:09.053Z,100167.34
2022-11-24T17:19:12.896Z,100163.66
2022-11-24T17:22:15.402Z,100175.97
2022-11-24T17:25:18.145Z,100181.16
2022-11-24T17:28:20.888Z,100181.09
2022-11-24T17:31:25.702Z,100185.41
2022-11-24T17:34:28.253Z,100195.06
2022-11-24T17:37:32.229Z,100202.94
2022-11-24T17:40:35.405Z,100205.47
2022-11-24T17:43:38.494Z,100208.09
2022-11-24T17:46:41.246Z,100201.91
2022-11-24T17:49:44.244Z,100211.59
2022-11-24T17:52:46.849Z,100209.84
2022-11-24T17:55:49.676Z,100217.88
2022-11-24T17:58:54.408Z,100221.44
2022-11-24T18:01:57.522Z,100219.69
2022-11-24T18:05:00.527Z,100225.78
2022-11-24T18:08:04.156Z,100222.16
2022-11-24T18:11:08.915Z,100226.53
2022-11-24T18:14:11.729Z,100230.91
2022-11-24T18:17:14.739Z,100239.88
2022-11-24T18:20:18.646Z,100236.47
2022-11-24T18:23:21.700Z,100229.41
2022-11-24T18:26:24.282Z,100228.50
2022-11-24T18:29:28.264Z,100233.84
2022-11-24T18:32:34.196Z,100233.91
2022-11-24T18:35:37.266Z,100242.94
2022-11-24T18:38:40.080Z,100246.63
2022-11-24T18:41:43.127Z,100242.28
2022-11-24T18:44:49.723Z,100237.97
2022-11-24T18:47:55.518Z,100246.06
2022-11-24T18:50:58.165Z,100251.56
2022-11-24T18:54:03.173Z,100238.19
2022-11-24T18:57:05.831Z,100240.75
2022-11-24T19:00:10.523Z,100243.41
2022-11-24T19:03:13.705Z,100250.69
2022-11-24T19:06:20.324Z,100249.12
2022-11-24T19:09:25.414Z,100251.84
2022-11-24T19:12:28.379Z,100256.41
2022-11-24T19:15:35.189Z,100259.16
2022-11-24T19:18:38.488Z,100260.09
2022-11-24T19:21:41.481Z,100262.78
2022-11-24T19:24:46.689Z,100268.13
2022-11-24T19:27:49.457Z,100267.22
2022-11-24T19:30:52.497Z,100282.31
2022-11-24T19:33:57.971Z,100273.44
2022-11-24T19:37:01.020Z,100275.25
2022-11-24T19:40:04.960Z,100278.81
2022-11-24T19:43:08.076Z,100279.69
2022-11-24T19:46:12.458Z,100285.00
2022-11-24T19:49:15.586Z,100294.00
2022-11-24T19:52:18.635Z,100292.44
2022-11-24T19:55:21.695Z,100290.00
2022-11-24T19:58:24.919Z,100298.97
2022-11-24T20:01:33.518Z,100294.56
2022-11-24T20:04:39.745Z,100315.06
2022-11-24T20:07:42.587Z,100314.22
2022-11-24T20:10:45.819Z,100313.34
2022-11-24T20:13:50.108Z,100318.72
2022-11-24T20:16:53.168Z,100322.31
2022-11-24T20:19:55.954Z,100325.94
2022-11-24T20:22:59.044Z,100333.97
2022-11-24T20:26:07.422Z,100340.22
2022-11-24T20:29:13.157Z,100336.69
2022-11-24T20:32:19.583Z,100337.56
2022-11-24T20:35:22.699Z,100341.13
2022-11-24T20:38:25.169Z,100343.81
2022-11-24T20:41:31.792Z,100342.94
2022-11-24T20:44:34.996Z,100350.09
2022-11-24T20:47:38.095Z,100347.44
2022-11-24T20:50:40.860Z,100348.28
2022-11-24T20:53:43.754Z,100350.97
2022-11-24T20:56:47.133Z,100346.50
2022-11-24T20:59:52.416Z,100349.13
2022-11-24T21:02:57.672Z,100360.69
2022-11-24T21:06:01.012Z,100364.25
2022-11-24T21:09:05.522Z,100366.88
2022-11-24T21:12:08.401Z,100367.72
2022-11-24T21:18:34.686Z,100372.16
2022-11-24T21:21:38.192Z,100362.37
2022-11-24T21:24:40.970Z,100361.47
2022-11-24T21:27:44.808Z,100365.94
2022-11-24T21:30:47.621Z,100375.75
2022-11-24T21:33:52.055Z,100366.88
2022-11-24T21:36:54.537Z,100370.41
2022-11-24T21:43:00.515Z,100374.88
2022-11-24T21:46:06.391Z,100386.50
2022-11-24T21:49:08.991Z,100389.19
2022-11-24T21:52:11.786Z,100384.75
2022-11-24T21:55:14.388Z,100385.63
2022-11-24T21:58:17.165Z,100386.53
2022-11-24T22:01:21.374Z,100383.91
2022-11-24T22:04:24.339Z,100390.16
2022-11-24T22:07:31.431Z,100386.59
2022-11-24T22:10:36.008Z,100392.81
2022-11-24T22:13:38.940Z,100397.25
2022-11-24T22:16:41.893Z,100405.22
2022-11-24T22:19:44.411Z,100422.19
2022-11-24T22:22:47.106Z,100414.22
2022-11-24T22:25:49.579Z,100406.22
2022-11-24T22:31:57.726Z,100400.00
2022-11-24T22:35:00.607Z,100404.47
2022-11-24T22:38:03.107Z,100408.06
2022-11-24T22:41:15.168Z,100410.75
2022-11-24T22:44:17.755Z,100416.09
2022-11-24T22:47:20.586Z,100418.72
2022-11-24T22:50:23.026Z,100420.50
2022-11-24T22:53:25.804Z,100414.22
2022-11-24T22:56:29.820Z,100413.37
2022-11-24T22:59:33.581Z,100421.38
2022-11-24T23:02:36.114Z,100417.81
2022-11-24T23:05:38.875Z,100423.22
2022-11-24T23:08:41.577Z,100427.75
2022-11-24T23:11:44.411Z,100432.25
2022-11-24T23:14:46.822Z,100435.88
2022-11-24T23:20:52.932Z,100439.50
2022-11-24T23:23:56.206Z,100436.91
2022-11-24T23:26:58.627Z,100440.50
2022-11-24T23:30:04.095Z,100437.88
2022-11-24T23:33:06.554Z,100436.97
2022-11-24T23:36:13.646Z,100440.53
2022-11-24T23:39:16.122Z,100436.91
2022-11-24T23:42:18.992Z,100436.06
2022-11-24T23:45:21.592Z,100438.72
2022-11-24T23:48:24.503Z,100435.16
2022-11-24T23:51:28.873Z,100441.34
2022-11-24T23:54:31.651Z,100444.00
2022-11-24T23:57:34.145Z,100443.94
